Time;durP1;ratioP1;P1;durP2;ratioP2;P2;SDS_P1;SDS_P2;PMS_P1;PMS_P2;Temp;Humidity;BMP_temperature;BMP_pressure;BME280_temperature;BME280_humidity;BME280_pressure;Samples;Min_cycle;Max_cycle;Signal;HPM_P1;HPM_P2
2023/01/22 00:01:11;;;;;;;;;;;;;;;17.32;73.14;100919.94;7400366;19;2007;-48
2023/01/22 00:03:42;;;;;;;;;;;;;;;17.32;73.09;100912.75;7402139;19;2144;-48
2023/01/22 00:06:11;;;;;;;;;;;;;;;17.31;73.15;100916.44;7401683;19;1931;-48
2023/01/22 00:08:39;;;;;;;;;;;;;;;17.28;73.16;100914.81;7399096;19;1866;-48
2023/01/22 00:11:08;;;;;;;;;;;;;;;17.28;73.36;100911.31;7400383;19;1756;-48
2023/01/22 00:13:36;;;;;;;;;;;;;;;17.25;73.09;100907.06;7400590;19;1957;-48
2023/01/22 00:16:05;;;;;;;;;;;;;;;17.26;73.09;100903.41;7400754;19;2115;-47
2023/01/22 00:18:33;;;;;;;;;;;;;;;17.25;73.17;100898.19;7400362;19;2507;-48
2023/01/22 00:21:04;;;;;;;;;;;;;;;17.24;73.08;100902.66;7400643;19;1777;-48
2023/01/22 00:23:32;;;;;;;;;;;;;;;17.23;73.29;100913.47;7400409;19;2145;-48
2023/01/22 00:26:05;;;;;;;;;;;;;;;17.23;73.42;100906.34;7399841;19;1804;-48
2023/01/22 00:28:33;;;;;;;;;;;;;;;17.24;72.93;100909.84;7399053;19;1933;-47
2023/01/22 00:31:02;;;;;;;;;;;;;;;17.23;72.83;100887.63;7401001;19;1961;-48
2023/01/22 00:33:31;;;;;;;;;;;;;;;17.19;73.27;100885.28;7399135;19;1799;-47
2023/01/22 00:36:04;;;;;;;;;;;;;;;17.18;73.03;100921.03;7400386;19;2076;-48
2023/01/22 00:38:35;;;;;;;;;;;;;;;17.16;73.03;100934.50;7400554;19;1958;-47
2023/01/22 00:41:04;;;;;;;;;;;;;;;17.17;72.89;100952.25;7400827;19;1798;-48
2023/01/22 00:43:33;;;;;;;;;;;;;;;17.15;73.20;100956.84;7400633;19;1785;-48
2023/01/22 00:46:01;;;;;;;;;;;;;;;17.17;73.19;100978.97;7400132;19;1737;-48
2023/01/22 00:48:29;;;;;;;;;;;;;;;17.13;73.07;100977.50;7398321;19;2067;-48
2023/01/22 00:50:58;;;;;;;;;;;;;;;17.13;72.86;100993.53;7398910;19;1871;-48
2023/01/22 00:53:26;;;;;;;;;;;;;;;17.12;73.31;101005.19;7398305;19;2389;-47
2023/01/22 00:55:58;;;;;;;;;;;;;;;17.14;73.10;101018.44;7399340;19;1941;-48
2023/01/22 00:58:26;;;;;;;;;;;;;;;17.12;73.30;101026.56;7399218;19;1743;-48
2023/01/22 01:00:55;;;;;;;;;;;;;;;17.17;73.06;101026.19;7399039;19;1725;-48
2023/01/22 01:03:30;;;;;;;;;;;;;;;17.15;73.02;101034.34;7399602;19;1792;-48
2023/01/22 01:05:59;;;;;;;;;;;;;;;17.19;73.16;101034.94;7399762;19;1805;-48
2023/01/22 01:08:27;;;;;;;;;;;;;;;17.18;72.99;101039.44;7398388;19;2134;-48
2023/01/22 01:10:59;;;;;;;;;;;;;;;17.14;73.28;101037.97;7399467;19;1778;-48
2023/01/22 01:13:28;;;;;;;;;;;;;;;17.14;73.33;101029.13;7398910;19;1682;-47
2023/01/22 01:16:04;;;;;;;;;;;;;;;17.14;73.03;101050.50;7396658;19;1843;-48
2023/01/22 01:18:32;;;;;;;;;;;;;;;17.10;73.12;101044.53;7398622;19;1900;-48
2023/01/22 01:21:03;;;;;;;;;;;;;;;17.11;73.27;101056.94;7398995;19;1937;-47
2023/01/22 01:23:31;;;;;;;;;;;;;;;17.15;74.79;101053.06;7398378;19;2009;-48
2023/01/22 01:26:02;;;;;;;;;;;;;;;17.17;74.64;101048.44;7399059;19;1803;-48
2023/01/22 01:28:30;;;;;;;;;;;;;;;17.29;75.00;101062.69;7398296;19;2256;-47
2023/01/22 01:31:03;;;;;;;;;;;;;;;17.40;74.63;101049.34;7399156;19;2162;-48
2023/01/22 01:33:31;;;;;;;;;;;;;;;17.41;74.38;101051.06;7396266;19;2075;-48
2023/01/22 01:36:03;;;;;;;;;;;;;;;17.40;74.06;101054.69;7398358;19;1778;-47
2023/01/22 01:38:31;;;;;;;;;;;;;;;17.33;74.06;101061.50;7397147;19;1839;-48
2023/01/22 01:41:02;;;;;;;;;;;;;;;17.27;74.17;101075.34;7398122;19;1915;-47
2023/01/22 01:43:31;;;;;;;;;;;;;;;17.19;74.29;101083.94;7398522;19;1822;-48
2023/01/22 01:46:01;;;;;;;;;;;;;;;17.18;74.56;101081.38;7397181;19;1926;-48
2023/01/22 01:48:33;;;;;;;;;;;;;;;17.17;74.47;101076.97;7397580;19;1871;-48
2023/01/22 01:51:04;;;;;;;;;;;;;;;17.17;74.35;101080.53;7399296;19;1800;-48
2023/01/22 01:53:33;;;;;;;;;;;;;;;17.13;73.94;101073.69;7397942;19;1947;-47
2023/01/22 01:56:04;;;;;;;;;;;;;;;17.10;74.18;101072.09;7397075;19;2148;-48
2023/01/22 01:58:35;;;;;;;;;;;;;;;17.12;74.08;101076.47;7397727;19;2388;-48
2023/01/22 02:01:07;;;;;;;;;;;;;;;17.10;74.14;101073.91;7397125;19;1772;-48
2023/01/22 02:03:36;;;;;;;;;;;;;;;17.10;74.27;101068.56;7398341;19;2021;-48
2023/01/22 02:06:04;;;;;;;;;;;;;;;17.12;74.07;101060.44;7401728;19;2223;-47
2023/01/22 02:08:32;;;;;;;;;;;;;;;17.07;74.09;101069.66;7402843;19;1961;-48
2023/01/22 02:11:03;;;;;;;;;;;;;;;17.06;74.17;101072.44;7406355;19;1791;-48
2023/01/22 02:13:34;;;;;;;;;;;;;;;17.05;73.77;101066.25;7403857;19;1999;-48
2023/01/22 02:16:02;;;;;;;;;;;;;;;17.07;73.98;101058.97;7404598;19;1951;-48
2023/01/22 02:18:31;;;;;;;;;;;;;;;17.08;73.75;101071.34;7404501;19;1819;-48
2023/01/22 02:21:02;;;;;;;;;;;;;;;17.09;73.82;101081.09;7405342;19;1746;-48
2023/01/22 02:23:32;;;;;;;;;;;;;;;17.04;73.77;101075.22;7404406;19;1971;-48
2023/01/22 02:26:01;;;;;;;;;;;;;;;17.02;74.06;101071.81;7404697;19;2198;-47
2023/01/22 02:28:30;;;;;;;;;;;;;;;17.04;74.02;101072.56;7403007;19;2372;-48
2023/01/22 02:30:58;;;;;;;;;;;;;;;17.04;74.00;101059.19;7404795;19;1761;-48
2023/01/22 02:33:26;;;;;;;;;;;;;;;17.01;73.77;101051.44;7402415;19;1965;-47
2023/01/22 02:35:54;;;;;;;;;;;;;;;17.00;73.61;101065.75;7404297;19;2071;-48
2023/01/22 02:38:25;;;;;;;;;;;;;;;17.00;73.89;101052.38;7404267;19;1803;-47
2023/01/22 02:40:53;;;;;;;;;;;;;;;16.98;74.00;101057.00;7404840;19;2050;-48
2023/01/22 02:43:22;;;;;;;;;;;;;;;16.97;73.68;101063.31;7402911;19;1757;-48
2023/01/22 02:45:50;;;;;;;;;;;;;;;16.99;73.67;101064.06;7402937;19;2705;-47
2023/01/22 02:48:18;;;;;;;;;;;;;;;16.95;74.03;101049.22;7402809;19;1863;-47
2023/01/22 02:50:47;;;;;;;;;;;;;;;16.97;73.66;101051.75;7403637;19;2025;-47
2023/01/22 02:53:15;;;;;;;;;;;;;;;16.97;73.86;101051.75;7403763;19;1728;-48
2023/01/22 02:55:47;;;;;;;;;;;;;;;16.99;73.94;101049.81;7403406;19;2145;-48
2023/01/22 02:58:16;;;;;;;;;;;;;;;16.97;73.80;101047.28;7402684;19;2017;-47
2023/01/22 03:00:44;;;;;;;;;;;;;;;16.98;73.64;101048.13;7404419;19;2135;-47
2023/01/22 03:03:14;;;;;;;;;;;;;;;16.99;73.61;101050.69;7401904;19;1936;-47
2023/01/22 03:05:45;;;;;;;;;;;;;;;16.95;73.70;101054.56;7403572;19;1758;-48
2023/01/22 03:08:13;;;;;;;;;;;;;;;16.93;73.89;101053.81;7402258;19;2067;-48
2023/01/22 03:10:42;;;;;;;;;;;;;;;16.94;73.62;101041.31;7403183;19;2172;-47
2023/01/22 03:21:19;;;;;;;;;;;;;;;16.95;73.76;101043.88;7403294;19;1625;-48
2023/01/22 03:23:48;;;;;;;;;;;;;;;16.95;73.51;101033.19;7403538;19;1819;-48
2023/01/22 03:26:16;;;;;;;;;;;;;;;16.93;73.49;101043.16;7401590;19;2146;-47
2023/01/22 03:28:47;;;;;;;;;;;;;;;16.94;73.79;101028.81;7400320;19;1846;-47
2023/01/22 03:31:16;;;;;;;;;;;;;;;16.94;73.73;101036.81;7401984;19;1859;-48
2023/01/22 03:33:45;;;;;;;;;;;;;;;16.91;73.77;101021.03;7400890;19;1799;-48
2023/01/22 03:36:15;;;;;;;;;;;;;;;16.92;73.40;101019.22;7402414;19;1877;-48
2023/01/22 03:38:45;;;;;;;;;;;;;;;16.92;73.46;101033.41;7401312;19;1872;-47
2023/01/22 03:41:14;;;;;;;;;;;;;;;16.89;73.43;101028.28;7400768;19;1726;-47
2023/01/22 03:43:43;;;;;;;;;;;;;;;16.91;73.40;101031.72;7402269;19;2185;-48
2023/01/22 03:46:15;;;;;;;;;;;;;;;16.89;73.38;101033.63;7400264;19;1766;-48
2023/01/22 03:48:43;;;;;;;;;;;;;;;16.87;73.70;101040.91;7400823;19;1826;-48
2023/01/22 03:51:13;;;;;;;;;;;;;;;16.86;73.69;101024.03;7401997;19;2136;-47
2023/01/22 03:53:41;;;;;;;;;;;;;;;16.86;73.70;101018.69;7401926;19;1856;-48
2023/01/22 03:56:12;;;;;;;;;;;;;;;16.88;73.53;101027.44;7402171;19;2203;-48
2023/01/22 03:58:40;;;;;;;;;;;;;;;16.88;73.75;101026.59;7400433;19;1937;-48
2023/01/22 04:01:10;;;;;;;;;;;;;;;16.86;73.54;101037.38;7401526;19;1979;-47
2023/01/22 04:03:41;;;;;;;;;;;;;;;16.87;73.37;101040.91;7402979;19;1952;-47
2023/01/22 04:06:10;;;;;;;;;;;;;;;16.86;73.67;101042.72;7402020;19;3103;-48
2023/01/22 04:08:39;;;;;;;;;;;;;;;16.87;73.41;101043.56;7400931;19;1985;-47
2023/01/22 04:11:07;;;;;;;;;;;;;;;16.84;73.50;101041.16;7401174;19;1615;-48
2023/01/22 04:13:37;;;;;;;;;;;;;;;16.85;73.79;101037.50;7400842;19;1763;-48
2023/01/22 04:16:05;;;;;;;;;;;;;;;16.84;73.24;101041.16;7401289;19;1774;-48
2023/01/22 04:18:33;;;;;;;;;;;;;;;16.87;73.23;101051.59;7401001;19;2016;-48
2023/01/22 04:21:04;;;;;;;;;;;;;;;16.86;73.46;101058.75;7401123;19;1796;-47
2023/01/22 04:23:33;;;;;;;;;;;;;;;16.83;73.52;101055.47;7400696;19;1756;-48
2023/01/22 04:26:01;;;;;;;;;;;;;;;16.84;73.49;101062.53;7400230;19;1787;-47
2023/01/22 04:28:29;;;;;;;;;;;;;;;16.84;73.36;101065.19;7398184;19;1865;-48
2023/01/22 04:30:58;;;;;;;;;;;;;;;16.86;73.18;101069.44;7400176;19;2545;-48
2023/01/22 04:33:26;;;;;;;;;;;;;;;16.84;73.51;101067.84;7399049;19;2177;-48
2023/01/22 04:35:56;;;;;;;;;;;;;;;16.84;73.40;101083.88;7400172;19;1921;-48
2023/01/22 04:38:27;;;;;;;;;;;;;;;16.83;73.29;101071.47;7400266;19;1991;-47
2023/01/22 04:40:55;;;;;;;;;;;;;;;16.81;73.25;101068.03;7399630;19;2308;-48
2023/01/22 04:43:23;;;;;;;;;;;;;;;16.81;73.59;101068.03;7399391;19;1948;-47
2023/01/22 04:45:52;;;;;;;;;;;;;;;16.80;73.52;101079.72;7398830;19;2018;-47
2023/01/22 04:48:20;;;;;;;;;;;;;;;16.82;73.65;101086.66;7399600;19;2203;-47
2023/01/22 04:50:48;;;;;;;;;;;;;;;16.81;73.57;101082.31;7400021;19;2208;-48
2023/01/22 04:53:17;;;;;;;;;;;;;;;16.84;73.40;101094.56;7400043;19;1984;-48
2023/01/22 04:55:48;;;;;;;;;;;;;;;16.79;73.38;101084.19;7399465;19;1770;-48
2023/01/22 04:58:16;;;;;;;;;;;;;;;16.75;73.71;101085.41;7399499;19;2031;-48
2023/01/22 05:00:44;;;;;;;;;;;;;;;16.79;73.32;101094.00;7398715;19;1798;-47
2023/01/22 05:03:13;;;;;;;;;;;;;;;16.77;73.44;101083.47;7399220;19;1772;-47
2023/01/22 05:05:41;;;;;;;;;;;;;;;16.76;73.64;101096.94;7399373;19;2086;-48
2023/01/22 05:08:09;;;;;;;;;;;;;;;16.75;73.24;101092.53;7399642;19;1974;-47
2023/01/22 05:10:37;;;;;;;;;;;;;;;16.79;73.26;101112.69;7397094;19;2669;-48
2023/01/22 05:13:09;;;;;;;;;;;;;;;16.77;73.28;101109.28;7398843;19;1973;-47
2023/01/22 05:15:37;;;;;;;;;;;;;;;16.76;73.51;101096.94;7399030;19;1922;-47
2023/01/22 05:18:05;;;;;;;;;;;;;;;16.74;73.51;101096.19;7397667;19;2355;-47
2023/01/22 05:20:34;;;;;;;;;;;;;;;16.74;73.30;101109.53;7398505;19;1958;-48
2023/01/22 05:23:02;;;;;;;;;;;;;;;16.78;73.20;101113.69;7398799;19;2017;-48
2023/01/22 05:25:30;;;;;;;;;;;;;;;16.76;73.12;101108.44;7397781;19;1847;-47
2023/01/22 05:27:58;;;;;;;;;;;;;;;16.80;73.22;101119.75;7397452;19;1812;-47
2023/01/22 05:30:29;;;;;;;;;;;;;;;16.74;73.62;101106.88;7397680;19;2064;-47
2023/01/22 05:32:58;;;;;;;;;;;;;;;16.77;73.67;101117.31;7397418;19;2115;-47
2023/01/22 05:35:26;;;;;;;;;;;;;;;16.76;73.59;101120.97;7398253;19;2038;-47
2023/01/22 05:37:55;;;;;;;;;;;;;;;16.77;73.35;101136.00;7400013;19;1759;-47
2023/01/22 05:40:23;;;;;;;;;;;;;;;16.74;73.65;101130.91;7402587;19;2142;-47
2023/01/22 05:42:51;;;;;;;;;;;;;;;16.70;73.72;101128.44;7405765;19;1821;-47
2023/01/22 05:45:19;;;;;;;;;;;;;;;16.69;73.27;101129.41;7404733;19;1917;-47
2023/01/22 05:47:55;;;;;;;;;;;;;;;16.72;73.55;101124.81;7405293;19;2359;-48
2023/01/22 05:50:24;;;;;;;;;;;;;;;16.70;73.54;101141.78;7403415;19;1866;-47
2023/01/22 05:52:55;;;;;;;;;;;;;;;16.69;73.32;101145.44;7407085;19;1746;-47
2023/01/22 05:55:23;;;;;;;;;;;;;;;16.70;73.39;101152.47;7405592;19;1953;-47
2023/01/22 05:57:52;;;;;;;;;;;;;;;16.74;73.57;101155.78;7405667;19;2197;-47
2023/01/22 06:00:21;;;;;;;;;;;;;;;16.73;73.26;101161.22;7404773;19;1919;-48
2023/01/22 06:02:49;;;;;;;;;;;;;;;16.72;73.31;101157.72;7405309;19;2012;-47
2023/01/22 06:05:20;;;;;;;;;;;;;;;16.74;73.38;101165.63;7404692;19;1797;-47
2023/01/22 06:07:48;;;;;;;;;;;;;;;16.72;73.38;101159.53;7406451;19;2024;-48
2023/01/22 06:10:17;;;;;;;;;;;;;;;16.73;73.44;101179.91;7403831;19;1848;-48
2023/01/22 06:12:46;;;;;;;;;;;;;;;16.73;73.16;101172.75;7403826;19;2146;-48
2023/01/22 06:15:14;;;;;;;;;;;;;;;16.67;73.43;101178.53;7404605;19;1961;-48
2023/01/22 06:17:42;;;;;;;;;;;;;;;16.68;73.44;101190.94;7404259;19;1805;-47
2023/01/22 06:20:11;;;;;;;;;;;;;;;16.80;73.09;101195.41;7403633;19;2040;-48
2023/01/22 06:22:42;;;;;;;;;;;;;;;17.13;72.71;101191.28;7405265;19;1816;-47
2023/01/22 06:25:11;;;;;;;;;;;;;;;18.03;69.69;101191.63;7404378;19;2087;-47
2023/01/22 06:27:39;;;;;;;;;;;;;;;18.49;68.40;101188.03;7402969;19;2042;-48
2023/01/22 06:30:08;;;;;;;;;;;;;;;18.90;67.20;101185.72;7402472;19;1848;-47
2023/01/22 06:32:36;;;;;;;;;;;;;;;19.17;66.37;101193.31;7403431;19;1818;-48
2023/01/22 06:35:05;;;;;;;;;;;;;;;19.38;65.76;101196.06;7403490;19;1848;-48
2023/01/22 06:37:33;;;;;;;;;;;;;;;19.52;65.69;101196.72;7404173;19;1967;-48
2023/01/22 06:40:04;;;;;;;;;;;;;;;19.44;65.56;101202.75;7401908;19;2358;-48
2023/01/22 06:42:32;;;;;;;;;;;;;;;19.36;65.76;101216.81;7402849;19;1649;-48
2023/01/22 06:45:00;;;;;;;;;;;;;;;19.30;65.97;101209.25;7402901;19;1982;-48
2023/01/22 06:47:29;;;;;;;;;;;;;;;19.36;65.61;101208.75;7403389;19;2258;-48
2023/01/22 06:49:57;;;;;;;;;;;;;;;19.46;65.65;101209.69;7305713;19;13716;-48
2023/01/22 06:52:25;;;;;;;;;;;;;;;19.52;66.07;101219.06;7395936;19;1922;-48
2023/01/22 06:54:53;;;;;;;;;;;;;;;19.50;65.92;101217.47;7403073;19;1837;-48
2023/01/22 06:57:24;;;;;;;;;;;;;;;19.57;65.77;101215.97;7401837;19;1749;-48
2023/01/22 06:59:53;;;;;;;;;;;;;;;19.50;66.28;101218.34;7402663;19;1868;-48
2023/01/22 07:02:21;;;;;;;;;;;;;;;19.59;66.46;101222.06;7400435;19;2221;-47
2023/01/22 07:04:49;;;;;;;;;;;;;;;19.58;67.09;101233.78;7401110;19;1808;-47
2023/01/22 07:07:18;;;;;;;;;;;;;;;19.52;67.60;101234.28;7401648;19;1671;-48
2023/01/22 07:09:46;;;;;;;;;;;;;;;19.57;67.46;101226.72;7402045;19;1867;-48
2023/01/22 07:12:14;;;;;;;;;;;;;;;19.54;67.99;101226.97;7402958;19;2265;-47
2023/01/22 07:14:45;;;;;;;;;;;;;;;19.62;67.91;101240.59;7403102;19;2252;-48
2023/01/22 07:17:14;;;;;;;;;;;;;;;19.70;67.84;101238.13;7402089;19;1859;-48
2023/01/22 07:19:43;;;;;;;;;;;;;;;19.73;68.05;101243.25;7402302;19;1800;-48
2023/01/22 07:22:11;;;;;;;;;;;;;;;19.80;67.95;101239.09;7403075;19;1997;-48
2023/01/22 07:24:39;;;;;;;;;;;;;;;19.76;67.86;101237.66;7401300;19;1781;-48
2023/01/22 07:27:07;;;;;;;;;;;;;;;19.73;68.10;101245.94;7400352;19;1942;-48
2023/01/22 07:29:36;;;;;;;;;;;;;;;19.75;68.23;101241.28;7401088;19;2018;-48
2023/01/22 07:32:07;;;;;;;;;;;;;;;19.72;68.18;101240.72;7400717;19;2112;-49
2023/01/22 07:34:36;;;;;;;;;;;;;;;19.57;67.99;101202.56;7396839;19;1747;-48
2023/01/22 07:37:04;;;;;;;;;;;;;;;19.48;67.78;101199.69;7399066;19;1822;-48
2023/01/22 07:39:32;;;;;;;;;;;;;;;19.79;67.83;101248.09;7401584;19;1775;-49
2023/01/22 07:42:01;;;;;;;;;;;;;;;19.88;67.97;101261.75;7400065;19;2037;-49
2023/01/22 07:44:29;;;;;;;;;;;;;;;19.95;67.47;101257.56;7399601;19;1800;-48
2023/01/22 07:46:58;;;;;;;;;;;;;;;20.00;67.42;101266.09;7400976;19;2060;-48
2023/01/22 07:49:29;;;;;;;;;;;;;;;20.04;67.35;101262.16;7400278;19;1973;-48
2023/01/22 07:51:57;;;;;;;;;;;;;;;19.94;67.28;101267.44;7400248;19;1774;-49
2023/01/22 07:54:26;;;;;;;;;;;;;;;19.21;70.02;101272.53;7396374;19;1626;-49
2023/01/22 07:56:55;;;;;;;;;;;;;;;18.73;71.40;101285.31;7396568;19;1747;-49
2023/01/22 07:59:23;;;;;;;;;;;;;;;18.49;72.17;101288.94;7396833;19;2066;-49
2023/01/22 08:01:51;;;;;;;;;;;;;;;18.33;72.57;101291.13;7380430;19;3102;-49
2023/01/22 08:04:19;;;;;;;;;;;;;;;18.23;72.46;101294.50;7382938;19;1942;-49
2023/01/22 08:06:50;;;;;;;;;;;;;;;18.14;72.80;101291.66;7382704;19;1709;-48
2023/01/22 08:09:23;;;;;;;;;;;;;;;18.09;72.53;101300.06;7390252;19;2206;-49
2023/01/22 08:11:53;;;;;;;;;;;;;;;18.04;73.03;101295.03;7388653;19;1832;-49
2023/01/22 08:14:21;;;;;;;;;;;;;;;18.07;72.78;101299.31;7389521;19;2113;-49
2023/01/22 08:16:50;;;;;;;;;;;;;;;18.05;72.70;101304.78;6881119;19;9999674;-48
2023/01/22 08:19:18;;;;;;;;;;;;;;;17.98;72.46;101300.00;7395456;19;1830;-49
2023/01/22 08:21:46;;;;;;;;;;;;;;;17.91;73.02;101299.63;7396800;19;1781;-49
2023/01/22 08:24:17;;;;;;;;;;;;;;;17.86;72.50;101304.44;7393031;19;2111;-49
2023/01/22 08:26:46;;;;;;;;;;;;;;;17.85;72.93;101295.56;7393969;19;2127;-48
2023/01/22 08:29:14;;;;;;;;;;;;;;;17.83;73.33;101299.31;7392378;19;1776;-49
2023/01/22 08:31:42;;;;;;;;;;;;;;;18.17;71.73;101267.34;7389185;19;1992;-48
2023/01/22 08:34:12;;;;;;;;;;;;;;;19.24;68.63;101306.31;7395127;19;1884;-48
2023/01/22 08:36:40;;;;;;;;;;;;;;;19.53;67.74;101311.09;7399401;19;1832;-48
2023/01/22 08:39:09;;;;;;;;;;;;;;;19.79;66.84;101311.66;7396052;19;1909;-49
2023/01/22 08:41:40;;;;;;;;;;;;;;;19.99;66.73;101318.06;7399519;19;1904;-48
2023/01/22 08:44:09;;;;;;;;;;;;;;;19.63;67.27;101317.41;7398454;19;1981;-49
2023/01/22 08:46:39;;;;;;;;;;;;;;;18.98;69.11;101311.03;7400247;19;1778;-49
2023/01/22 08:49:07;;;;;;;;;;;;;;;18.57;70.29;101333.88;7398760;19;2142;-49
2023/01/22 08:51:36;;;;;;;;;;;;;;;18.32;70.95;101329.56;7398301;19;1858;-48
2023/01/22 08:54:04;;;;;;;;;;;;;;;18.68;70.19;101329.41;7399759;19;1774;-49
2023/01/22 08:56:32;;;;;;;;;;;;;;;19.19;69.15;101329.94;7399232;19;1837;-48
2023/01/22 08:59:05;;;;;;;;;;;;;;;19.37;69.50;101341.84;7399082;19;1861;-49
2023/01/22 09:01:33;;;;;;;;;;;;;;;19.09;69.89;101335.19;7398998;19;2452;-51
2023/01/22 09:04:02;;;;;;;;;;;;;;;19.43;71.97;101327.09;7400087;19;1705;-50
2023/01/22 09:06:31;;;;;;;;;;;;;;;19.23;71.76;101336.75;7400419;19;2190;-50
2023/01/22 09:09:00;;;;;;;;;;;;;;;19.08;71.85;101331.66;7398205;19;2069;-50
2023/01/22 09:11:28;;;;;;;;;;;;;;;19.31;71.29;101317.38;7395470;19;1862;-49
2023/01/22 09:13:57;;;;;;;;;;;;;;;19.66;69.82;101323.38;7396199;19;1854;-48
2023/01/22 09:16:28;;;;;;;;;;;;;;;19.15;71.43;101326.63;7395643;19;2066;-49
2023/01/22 09:18:56;;;;;;;;;;;;;;;18.72;72.23;101339.88;7397036;19;1810;-48
2023/01/22 09:21:24;;;;;;;;;;;;;;;18.57;73.07;101339.25;7384595;19;1950;-48
2023/01/22 09:23:53;;;;;;;;;;;;;;;19.14;71.54;101321.41;7395606;19;1604;-48
2023/01/22 09:26:21;;;;;;;;;;;;;;;19.47;70.53;101337.44;7395016;19;2262;-49
2023/01/22 09:28:49;;;;;;;;;;;;;;;18.94;71.56;101341.75;7392442;19;1752;-49
2023/01/22 09:31:18;;;;;;;;;;;;;;;18.58;72.87;101333.78;7395300;19;1852;-48
2023/01/22 09:33:50;;;;;;;;;;;;;;;18.34;73.06;101312.38;7397033;19;1650;-48
2023/01/22 09:36:21;;;;;;;;;;;;;;;18.20;74.14;101316.13;7396791;19;2144;-49
2023/01/22 09:38:49;;;;;;;;;;;;;;;18.23;73.90;101334.66;7395011;19;2006;-49
2023/01/22 09:41:20;;;;;;;;;;;;;;;18.14;74.04;101326.47;7382056;19;1777;-49
2023/01/22 09:43:51;;;;;;;;;;;;;;;18.12;73.84;101328.41;7390057;19;1607;-49
2023/01/22 09:46:21;;;;;;;;;;;;;;;18.18;73.90;101328.78;7396845;19;1784;-49
2023/01/22 09:48:56;;;;;;;;;;;;;;;18.12;74.03;101323.88;7396938;19;1605;-49
2023/01/22 09:51:24;;;;;;;;;;;;;;;18.09;73.64;101316.94;7396357;19;1862;-48
2023/01/22 09:53:56;;;;;;;;;;;;;;;18.34;73.18;101322.25;7397961;19;1897;-48
2023/01/22 09:56:27;;;;;;;;;;;;;;;19.13;70.88;101347.34;7398404;19;1918;-49
2023/01/22 09:58:56;;;;;;;;;;;;;;;19.00;70.60;101319.81;7398653;19;1948;-49
2023/01/22 10:01:25;;;;;;;;;;;;;;;18.64;71.95;101335.97;7397721;19;1580;-50
2023/01/22 10:03:58;;;;;;;;;;;;;;;18.38;72.79;101329.09;7398230;19;1786;-49
2023/01/22 10:06:28;;;;;;;;;;;;;;;18.23;73.28;101339.16;7398965;19;1959;-48
2023/01/22 10:09:01;;;;;;;;;;;;;;;18.10;73.26;101328.50;7397819;19;1975;-49
2023/01/22 10:11:30;;;;;;;;;;;;;;;18.02;73.79;101322.88;7395750;19;1970;-49
2023/01/22 10:14:00;;;;;;;;;;;;;;;18.88;70.82;101327.03;7397173;19;2009;-48
2023/01/22 10:16:28;;;;;;;;;;;;;;;19.32;69.47;101335.16;7398648;19;1640;-48
2023/01/22 10:19:01;;;;;;;;;;;;;;;18.93;70.53;101322.13;7397486;19;1950;-48
2023/01/22 10:21:31;;;;;;;;;;;;;;;18.58;71.94;101325.75;7395711;19;1785;-50
2023/01/22 10:23:59;;;;;;;;;;;;;;;18.37;72.80;101327.41;7392389;19;1868;-49
2023/01/22 10:26:34;;;;;;;;;;;;;;;18.29;73.42;101326.16;7397518;19;1824;-49
2023/01/22 10:29:06;;;;;;;;;;;;;;;18.19;73.90;101322.47;7402106;19;2085;-49
2023/01/22 10:31:35;;;;;;;;;;;;;;;18.10;74.09;101323.16;7398558;19;1953;-49
2023/01/22 10:34:11;;;;;;;;;;;;;;;18.15;74.80;101323.66;7398371;19;1803;-48
2023/01/22 10:36:39;;;;;;;;;;;;;;;18.82;72.39;101322.13;7403097;19;1967;-48
2023/01/22 10:39:10;;;;;;;;;;;;;;;19.26;70.80;101320.44;7400847;19;2112;-49
2023/01/22 10:41:38;;;;;;;;;;;;;;;18.92;72.35;101314.22;7402482;19;1899;-48
2023/01/22 10:44:11;;;;;;;;;;;;;;;18.56;73.57;101316.09;7403744;19;1960;-49
2023/01/22 10:46:39;;;;;;;;;;;;;;;18.37;74.84;101322.88;7402883;19;1805;-49
2023/01/22 10:49:15;;;;;;;;;;;;;;;18.18;74.79;101326.09;7402957;19;1987;-49
2023/01/22 10:51:45;;;;;;;;;;;;;;;18.08;75.44;101333.13;7402785;19;1997;-49
2023/01/22 10:54:21;;;;;;;;;;;;;;;18.01;75.57;101329.22;7402835;19;1818;-48
2023/01/22 10:56:50;;;;;;;;;;;;;;;18.02;75.20;101322.88;7403204;19;2006;-49
2023/01/22 10:59:21;;;;;;;;;;;;;;;18.84;72.61;101314.81;7400261;19;2026;-49
2023/01/22 11:01:50;;;;;;;;;;;;;;;19.17;71.64;101310.44;7401890;19;1770;-49
2023/01/22 11:04:25;;;;;;;;;;;;;;;18.89;72.08;101326.03;7400344;19;1665;-49
2023/01/22 11:06:55;;;;;;;;;;;;;;;18.47;73.34;101317.66;7401197;19;2003;-49
2023/01/22 11:09:26;;;;;;;;;;;;;;;18.17;74.20;101311.03;7402282;19;1907;-49
2023/01/22 11:11:58;;;;;;;;;;;;;;;18.11;74.40;101310.66;7401030;19;1846;-48
2023/01/22 11:14:29;;;;;;;;;;;;;;;18.05;74.85;101311.97;7398995;19;2042;-49
2023/01/22 11:17:00;;;;;;;;;;;;;;;17.93;74.87;101310.22;7401483;19;1870;-49
2023/01/22 11:19:36;;;;;;;;;;;;;;;18.27;73.69;101306.66;7402349;19;1797;-48
2023/01/22 11:22:05;;;;;;;;;;;;;;;18.87;71.77;101298.50;7401691;19;1623;-48
2023/01/22 11:24:41;;;;;;;;;;;;;;;18.82;72.10;101311.41;7398120;19;1964;-49
2023/01/22 11:27:18;;;;;;;;;;;;;;;18.52;72.82;101299.41;7401286;19;1984;-49
2023/01/22 11:29:57;;;;;;;;;;;;;;;18.27;73.55;101313.84;7402349;19;1831;-49
2023/01/22 11:32:35;;;;;;;;;;;;;;;18.08;73.93;101312.59;7399707;19;2282;-49
2023/01/22 11:35:14;;;;;;;;;;;;;;;18.01;74.48;101331.91;7401299;19;1839;-49
2023/01/22 11:37:49;;;;;;;;;;;;;;;17.95;74.48;101327.00;7400567;19;1764;-49
2023/01/22 11:40:23;;;;;;;;;;;;;;;17.96;74.93;101318.00;7400467;19;1943;-49
2023/01/22 11:43:02;;;;;;;;;;;;;;;17.96;74.33;101308.13;7401895;19;1917;-48
2023/01/22 11:45:36;;;;;;;;;;;;;;;18.03;74.28;101320.09;7400238;19;2421;-49
2023/01/22 11:48:22;;;;;;;;;;;;;;;18.68;71.99;101315.13;7400209;19;2083;-49
2023/01/22 11:50:54;;;;;;;;;;;;;;;19.02;70.95;101313.38;7400087;19;1857;-49
2023/01/22 11:53:33;;;;;;;;;;;;;;;18.69;72.18;101308.81;7400977;19;1936;-50
2023/01/22 11:56:09;;;;;;;;;;;;;;;18.31;72.91;101311.81;7400931;19;1830;-49
2023/01/22 11:58:43;;;;;;;;;;;;;;;18.15;73.47;101325.50;7400982;19;1873;-49
2023/01/22 12:01:19;;;;;;;;;;;;;;;18.00;74.44;101319.47;7401535;19;1762;-48
2023/01/22 12:04:08;;;;;;;;;;;;;;;18.06;74.67;101324.34;7401157;19;1812;-49
2023/01/22 12:06:57;;;;;;;;;;;;;;;18.69;72.88;101322.22;7400009;19;2324;-49
2023/01/22 12:09:29;;;;;;;;;;;;;;;18.93;71.81;101305.22;7400870;19;1762;-49
2023/01/22 12:12:04;;;;;;;;;;;;;;;18.58;72.79;101325.75;7399925;19;1897;-49
2023/01/22 12:14:52;;;;;;;;;;;;;;;18.26;73.38;101329.06;7399475;19;2023;-49
2023/01/22 12:17:26;;;;;;;;;;;;;;;18.09;73.84;101314.28;7400704;19;1878;-49
2023/01/22 12:20:12;;;;;;;;;;;;;;;18.00;74.47;101324.81;7398918;19;1950;-48
2023/01/22 12:22:45;;;;;;;;;;;;;;;18.29;73.20;101322.63;7398926;19;2067;-48
2023/01/22 12:25:17;;;;;;;;;;;;;;;18.96;71.49;101321.03;7400470;19;1714;-48
2023/01/22 12:27:49;;;;;;;;;;;;;;;18.84;71.58;101325.53;7401235;19;1874;-49
2023/01/22 12:30:21;;;;;;;;;;;;;;;18.47;72.37;101323.88;7398611;19;1864;-48
2023/01/22 12:32:52;;;;;;;;;;;;;;;18.22;73.43;101330.28;7398553;19;1933;-49
2023/01/22 12:35:22;;;;;;;;;;;;;;;18.05;73.92;101333.38;7398093;19;2002;-49
2023/01/22 12:37:57;;;;;;;;;;;;;;;17.95;74.11;101327.00;7399449;19;1612;-49
2023/01/22 12:40:31;;;;;;;;;;;;;;;18.20;73.65;101337.53;7398566;19;1841;-48
2023/01/22 12:43:02;;;;;;;;;;;;;;;18.99;70.94;101340.41;7400064;19;1836;-49
2023/01/22 12:45:37;;;;;;;;;;;;;;;18.82;71.48;101346.25;7398886;19;1827;-48
2023/01/22 12:48:11;;;;;;;;;;;;;;;18.44;72.77;101355.38;7399381;19;1715;-49
2023/01/22 12:50:49;;;;;;;;;;;;;;;18.14;73.32;101346.03;7397845;19;1735;-48
2023/01/22 12:53:28;;;;;;;;;;;;;;;17.93;74.43;101350.34;7395452;19;2076;-48
2023/01/22 12:56:00;;;;;;;;;;;;;;;17.87;74.32;101362.34;7398089;19;1769;-48
2023/01/22 12:58:30;;;;;;;;;;;;;;;18.52;72.47;101368.19;7396521;19;2089;-48
2023/01/22 13:01:03;;;;;;;;;;;;;;;18.99;70.87;101351.13;7396971;19;2788;-48
2023/01/22 13:03:31;;;;;;;;;;;;;;;18.64;71.90;101346.69;7398152;19;2421;-48
2023/01/22 13:06:00;;;;;;;;;;;;;;;18.30;72.76;101359.13;7398778;19;2002;-49
2023/01/22 13:08:37;;;;;;;;;;;;;;;18.04;73.55;101359.25;7398792;19;1847;-49